Date,TemperatureHighF,TemperatureAvgF,TemperatureLowF,DewpointHighF,DewpointAvgF,DewpointLowF,HumidityHigh,HumidityAvg,HumidityLow,PressureMaxIn,PressureMinIn,WindSpeedMaxMPH,WindSpeedAvgMPH,GustSpeedMaxMPH,PrecipitationSumIn
2013-1-30,70,60,40,44,41,37,89,53,34,30.33,30.23,7,1,7,0.00
2013-1-31,76,65,53,46,41,36,71,44,28,30.23,30.12,9,3,9,0.00
2013-2-1,78,61,49,49,42,37,70,50,27,30.19,30.13,8,2,9,0.00
2013-2-2,73,66,60,53,41,36,70,40,30,30.22,30.14,9,3,0,0.00
2013-2-3,74,63,50,51,46,42,81,56,36,30.17,30.03,8,2,0,0.00
2013-2-4,72,55,43,53,44,34,90,67,39,30.10,30.00,5,1,0,0.00
2013-2-5,58,49,42,50,46,40,95,88,72,30.10,30.00,4,1,0,0.00
2013-2-6,65,52,44,49,46,34,91,80,55,30.11,30.01,6,1,0,0.00
2013-2-7,58,48,40,49,43,36,91,81,68,30.14,29.98,9,1,0,0.00
2013-2-8,50,44,38,45,35,27,89,73,47,29.98,29.87,13,3,0,0.00
2013-2-9,40,35,33,34,30,21,96,81,62,30.01,29.93,3,0,0,0.00
2013-2-10,55,49,40,43,40,34,85,70,56,30.07,30.01,5,1,0,0.00
2013-2-11,61,46,36,36,30,23,89,59,25,30.24,30.07,16,2,0,0.00
2013-2-12,64,47,34,36,29,22,80,52,22,30.34,30.24,9,2,0,0.00
2013-2-13,71,50,38,44,35,30,77,60,24,30.28,30.15,6,1,0,0.00
2013-2-14,76,56,40,42,35,29,78,51,21,30.21,30.09,7,2,0,0.00
2013-2-15,76,67,59,35,30,26,33,25,18,30.22,30.15,20,6,0,0.00
2013-2-16,80,69,59,37,26,20,29,21,12,30.19,30.03,12,4,0,0.00
2013-2-17,70,54,43,48,36,26,91,53,26,30.03,29.93,8,1,0,0.00
2013-2-18,63,52,43,48,45,40,94,79,53,30.06,29.94,6,1,0,0.00
2013-2-19,51,48,42,47,43,34,92,81,69,29.99,29.72,6,1,0,0.00
2013-2-20,59,46,32,38,33,28,93,63,40,29.99,29.72,7,2,0,0.00
2013-2-21,60,47,35,43,35,27,76,64,33,30.11,29.98,6,1,0,0.00
2013-2-22,65,51,38,39,33,29,77,55,27,30.19,30.11,9,1,0,0.00
2013-2-23,64,51,39,47,36,25,79,58,34,30.16,29.93,14,2,0,0.00
2013-2-24,63,54,44,30,19,14,48,27,16,30.20,30.05,17,5,0,0.00
2013-2-25,67,53,42,34,24,13,66,35,19,30.22,30.08,9,1,0,0.00
2013-2-26,71,56,40,33,28,21,66,37,17,30.15,30.01,12,2,0,0.00
2013-2-27,71,61,55,30,20,16,25,21,16,30.31,30.14,17,4,0,0.00
2013-2-28,78,59,45,34,24,17,41,27,14,30.34,30.25,8,1,0,0.00
2013-3-1,82,67,58,33,28,23,35,24,17,30.33,30.18,17,3,0,0.00
2013-3-2,82,68,56,39,34,28,46,30,19,30.24,30.11,9,2,0,0.00
2013-3-3,70,60,49,50,40,31,85,50,33,30.14,30.00,11,2,0,0.00
2013-3-4,67,54,44,53,44,37,90,72,49,30.11,30.01,8,1,0,0.00
2013-3-5,65,53,46,51,44,35,86,74,51,30.13,30.04,8,2,0,0.00
2013-3-6,54,50,46,48,45,41,90,82,70,30.15,30.02,5,1,0,0.00
2013-3-7,58,52,47,48,44,36,93,76,44,30.02,29.86,10,2,0,0.00
2013-3-8,55,48,42,44,39,32,90,70,54,30.02,29.80,9,2,0,0.00
2013-3-9,63,54,41,46,38,32,75,56,43,30.22,30.02,9,2,0,0.00
2013-3-10,75,58,48,42,34,26,69,43,17,30.28,30.18,14,2,0,0.00
2013-3-11,78,58,43,45,38,32,71,50,21,30.20,30.07,10,2,0,0.00
2013-3-12,86,59,45,52,42,37,75,56,20,30.11,30.03,6,1,0,0.00
2013-3-13,90,66,53,53,42,33,62,44,19,30.14,30.06,7,1,0,0.00
2013-3-14,88,66,51,54,43,36,65,46,24,30.11,30.04,7,1,0,0.00
2013-3-15,85,64,53,57,48,40,75,57,26,30.05,29.96,7,1,0,0.00
2013-3-16,70,60,49,57,51,40,94,74,52,29.98,29.89,9,2,0,0.00
2013-3-17,73,58,47,54,48,44,92,72,40,30.00,29.93,9,2,0,0.00
2013-3-18,64,54,46,53,47,43,94,80,54,30.09,29.98,7,1,0,0.00
2013-3-19,70,57,47,55,48,39,92,74,46,30.12,30.04,8,1,0,0.00
2013-3-20,70,60,52,55,51,46,90,74,45,30.11,29.97,7,2,0,0.00
2013-3-21,73,62,50,52,48,33,87,64,39,29.97,29.82,9,2,0,0.00
2013-3-22,76,62,49,48,35,20,57,37,20,29.92,29.80,12,2,0,0.00
2013-3-23,76,60,48,51,35,21,80,41,20,30.02,29.91,11,2,0,0.00
2013-3-24,78,62,49,49,43,33,71,51,33,30.04,29.92,10,2,0,0.00
2013-3-25,77,61,48,50,44,38,80,57,29,29.98,29.92,7,2,0,0.00
2013-3-26,70,57,46,53,47,41,85,70,45,29.98,29.92,8,2,0,0.00
2013-3-27,70,56,48,54,49,44,92,77,44,30.06,29.93,8,2,0,0.00
2013-3-28,74,57,48,57,49,44,92,77,46,30.08,30.02,8,1,0,0.00
2013-3-29,75,61,48,54,49,45,93,69,42,30.11,30.05,7,1,0,0.00
2013-3-30,74,60,52,58,50,-100,100,76,39,30.13,30.06,7,2,0,0.00
2013-3-31,64,56,53,58,53,46,99,89,75,30.13,30.06,8,1,0,0.00
2013-4-1,63,56,51,54,51,48,98,86,70,30.17,30.09,8,2,0,0.00
2013-4-2,71,59,46,55,49,41,95,72,44,30.10,30.01,8,2,0,0.00
2013-4-3,78,62,48,57,51,44,94,71,40,30.09,30.00,8,2,0,0.00
2013-4-4,71,58,52,58,54,49,100,87,53,30.13,30.03,12,2,0,0.00
2013-4-5,71,60,52,58,54,47,97,82,50,30.09,30.00,10,2,0,0.00
2013-4-6,72,60,49,56,50,45,95,72,43,30.09,29.96,7,2,0,0.00
2013-4-7,77,65,52,54,49,42,93,59,38,29.98,29.81,10,2,0,0.00
2013-4-8,66,58,51,52,43,32,93,63,32,29.85,29.68,9,2,0,0.00
2013-4-9,73,56,43,41,34,27,67,45,24,30.04,29.85,14,2,0,0.00
2013-4-10,80,62,52,38,33,27,45,34,18,30.13,30.00,9,1,0,0.00
2013-4-11,75,64,51,52,42,34,79,47,29,30.00,29.79,13,2,0,0.00
2013-4-12,74,60,49,56,50,44,92,72,45,29.87,29.81,9,1,0,0.00
2013-4-13,68,57,49,58,52,46,97,84,66,29.92,29.85,8,1,0,0.00
2013-4-14,63,57,54,55,52,50,96,85,74,29.89,29.83,8,2,0,0.00
2013-4-15,63,56,52,53,50,46,89,81,66,29.89,29.84,8,2,0,0.00
2013-4-16,63,58,46,45,37,25,83,47,30,30.01,29.90,8,3,0,0.00
2013-4-17,70,56,45,37,29,24,50,35,19,30.16,30.01,8,1,0,0.00
2013-4-18,77,61,53,35,26,19,38,27,18,30.24,30.14,13,3,0,0.00
2013-4-19,84,64,52,39,31,23,41,30,13,30.19,30.01,10,1,0,0.00
2013-4-20,89,68,54,51,41,34,52,39,19,30.02,29.92,10,2,0,0.00
2013-4-21,84,69,55,53,45,41,83,45,29,30.02,29.95,9,2,0,0.00
2013-4-22,74,60,47,57,51,40,94,74,46,30.02,29.91,6,1,0,0.00
2013-4-23,78,62,54,56,52,48,94,73,42,29.97,29.89,6,1,0,0.00
2013-4-24,61,56,54,56,53,51,95,90,82,30.01,29.91,5,1,0,0.00
2013-4-25,71,60,53,52,50,44,92,72,42,30.14,29.98,8,2,0,0.00
2013-4-26,76,62,47,54,47,37,81,61,41,30.16,30.11,6,1,0,0.00
2013-4-27,79,66,52,55,52,48,87,64,42,30.16,30.02,6,1,0,0.00
2013-4-28,81,65,50,59,52,43,90,66,39,30.03,29.88,8,2,0,0.00
2013-4-29,78,63,52,61,56,51,100,81,54,29.92,29.81,5,1,0,0.00
2013-4-30,72,61,55,56,54,48,100,80,49,29.91,29.84,9,2,0,0.00
2013-5-1,78,66,57,60,55,47,89,70,47,30.12,29.91,8,2,0,0.00
2013-5-2,87,69,50,52,33,10,92,41,7,30.19,30.05,21,4,9,0.00
2013-5-3,94,76,64,40,26,10,34,18,8,30.07,29.82,10,2,10,0.00
2013-5-4,80,67,56,58,45,31,74,46,27,29.85,29.75,7,2,10,0.00
2013-5-5,63,59,56,52,51,50,85,75,65,29.95,29.85,8,3,9,0.00
2013-5-6,66,60,54,55,53,49,97,77,62,30.04,29.94,6,1,0,0.00
2013-5-7,69,60,55,53,51,46,91,72,47,30.09,30.01,8,1,0,0.00
2013-5-8,70,60,54,54,50,40,93,70,43,30.12,30.09,11,2,0,0.00
2013-5-9,73,62,50,55,48,36,82,62,43,30.12,30.04,7,1,0,0.00
2013-5-10,82,65,53,62,54,-100,95,71,44,30.12,30.03,8,1,0,0.00
2013-5-11,89,71,55,64,56,-100,93,64,39,30.09,30.03,8,1,0,0.00
2013-5-12,95,74,59,61,56,51,77,56,31,30.08,29.97,8,1,0,0.00
2013-5-13,96,83,65,57,54,48,71,39,27,30.02,29.96,8,2,0,0.00
2013-5-14,67,61,54,55,50,45,92,69,55,29.99,29.93,3,0,0,0.00
2013-5-15,70,63,53,55,53,48,84,71,59,30.03,29.97,2,0,0,0.00
2013-5-16,72,57,53,60,38,-100,89,79,49,30.01,29.93,6,1,0,0.00
2013-5-17,73,62,55,57,49,-100,91,72,47,30.01,29.93,13,2,0,0.00
2013-5-18,75,64,52,59,54,49,94,70,53,30.06,29.99,8,1,0,0.00
2013-5-19,81,67,51,57,52,44,86,60,36,30.01,29.90,9,2,2,0.00
2013-5-20,92,69,54,61,54,41,92,65,19,29.97,29.92,15,1,15,0.00
2013-5-21,80,68,58,65,57,50,87,69,48,29.97,29.86,7,1,10,0.00
2013-5-22,74,64,56,59,54,49,91,72,51,29.87,29.80,7,2,10,0.00
2013-5-23,70,62,53,54,48,42,83,62,47,29.96,29.85,8,2,8,0.00
2013-5-24,73,61,51,54,47,41,77,62,46,30.01,29.93,8,1,0,0.00
2013-5-25,72,61,52,57,52,47,89,72,48,30.03,29.98,9,2,0,0.00
2013-5-26,73,62,52,57,50,46,87,67,45,30.06,30.01,7,1,0,0.00
2013-5-27,77,65,53,58,53,46,90,67,43,30.02,29.87,7,1,0,0.00
2013-5-28,81,68,55,61,55,48,89,67,45,29.91,29.78,8,1,0,0.00
2013-5-29,85,70,55,61,54,50,84,62,35,29.84,29.75,11,1,0,0.00
2013-5-30,82,69,55,62,57,52,91,69,44,29.88,29.80,7,2,1,0.00
2013-5-31,81,70,57,66,58,47,94,67,49,29.94,29.85,7,2,0,0.00
2013-6-1,90,71,57,68,59,47,93,70,45,29.88,29.78,6,1,0,0.00
2013-6-2,82,65,57,68,60,54,93,83,63,29.85,29.80,6,1,8,0.00
2013-6-3,78,66,59,64,57,49,91,76,50,29.92,29.82,6,2,8,0.00
2013-6-4,77,65,56,63,56,50,89,74,45,30.00,29.91,8,2,3,0.00
2013-6-5,76,63,52,61,55,49,92,76,51,30.03,29.94,7,2,0,0.00
2013-6-6,76,66,54,62,57,52,98,73,47,29.96,29.90,6,1,0,0.00
2013-6-7,80,64,56,66,57,52,94,79,47,29.94,29.81,6,1,0,0.00
2013-6-8,80,66,58,67,59,49,95,80,47,29.93,29.81,8,2,9,0.00
2013-6-9,82,66,58,66,57,51,91,75,45,29.94,29.90,5,2,5,0.00
2013-6-10,76,66,58,61,56,49,88,72,46,29.98,29.91,8,1,0,0.00
2013-6-11,86,70,57,62,56,49,88,63,43,29.97,29.92,6,1,0,0.00
2013-6-12,79,66,57,66,58,53,96,79,53,30.03,29.96,8,1,0,0.00
2013-6-13,79,66,58,64,57,50,87,73,52,30.03,29.93,8,1,0,0.00
2013-6-14,78,67,55,63,57,47,91,72,50,29.94,29.87,9,2,0,0.00
2013-6-15,78,66,58,62,57,48,91,74,48,30.00,29.91,6,1,0,0.00
2013-6-16,80,68,55,62,57,49,94,68,44,30.06,29.97,4,1,0,0.00
2013-6-17,84,68,55,63,57,51,92,69,39,30.00,29.91,7,1,0,0.00
2013-6-18,79,67,55,63,57,51,92,71,49,29.95,29.86,8,2,0,0.00
2013-6-19,83,68,54,56,52,47,94,61,28,29.90,29.81,9,1,0,0.00
2013-6-20,82,65,53,56,51,45,87,64,33,29.88,29.84,6,1,0,0.00
2013-6-21,82,80,76,57,56,55,50,44,39,29.90,29.87,6,3,0,0.00
2013-6-22,80,73,57,60,57,50,79,57,47,29.93,29.85,8,2,0,0.00
2013-6-23,73,64,57,59,53,49,83,68,50,29.90,29.83,6,1,0,0.00
2013-6-24,71,65,59,57,55,49,90,71,49,29.97,29.85,6,1,0,0.00
2013-6-25,78,69,57,64,55,49,87,62,47,30.01,29.94,5,1,0,0.00
2013-6-26,88,76,62,68,60,51,87,59,42,30.01,29.96,6,2,0,0.00
2013-6-27,94,79,67,69,61,53,80,57,39,30.05,29.99,7,2,0,0.00
2013-6-28,94,80,66,68,63,56,83,58,41,30.03,29.91,8,2,0,0.00
2013-6-29,97,83,67,68,63,58,80,53,35,29.91,29.80,10,1,10,0.00
2013-6-30,100,84,70,68,64,58,73,53,33,29.85,29.76,7,1,0,0.00
2013-7-1,95,79,69,69,64,60,82,61,35,29.92,29.83,7,1,0,0.00
2013-7-2,90,77,67,69,64,58,79,65,50,30.02,29.91,6,1,0,0.00
2013-7-3,89,72,63,69,62,56,91,73,51,29.95,29.85,7,1,0,0.00
2013-7-4,86,70,61,70,62,58,95,79,58,29.87,29.79,7,1,0,0.00
2013-7-5,84,70,61,69,61,52,92,75,58,29.88,29.80,6,1,0,0.00
2013-7-6,84,69,61,70,62,55,90,78,63,29.86,29.79,6,1,0,0.00
2013-7-7,85,70,60,69,60,54,95,72,50,29.89,29.82,7,1,0,0.00
2013-7-8,91,73,59,65,58,49,88,62,38,29.96,29.89,7,1,0,0.00
2013-7-9,93,78,63,64,57,51,71,51,33,30.01,29.94,7,1,0,0.00
2013-7-10,85,73,65,68,59,-100,81,64,43,30.01,29.93,9,1,0,0.00
2013-7-11,79,73,67,63,61,58,81,66,56,30.00,29.92,6,2,0,0.00
2013-7-12,84,73,62,70,62,54,90,69,50,29.96,29.90,6,1,0,0.00
2013-7-13,86,72,58,65,59,49,90,66,45,29.98,29.90,8,1,0,0.00
2013-7-14,89,77,61,66,60,54,82,57,40,29.94,29.85,7,2,0,0.00
2013-7-15,86,72,62,65,56,48,81,60,39,29.91,29.85,9,1,0,0.00
2013-7-16,86,70,53,58,51,43,84,54,33,30.01,29.89,9,1,0,0.00
2013-7-17,88,70,56,54,49,43,67,49,27,30.05,29.99,7,1,0,0.00
2013-7-18,85,72,56,59,53,42,73,54,38,30.02,29.91,8,1,0,0.00
2013-7-19,86,71,59,63,56,48,79,60,46,29.93,29.86,8,1,8,0.00
2013-7-20,86,69,59,68,58,-100,86,71,54,29.91,29.81,5,1,0,0.00
2013-7-21,79,70,63,68,62,53,87,76,61,29.95,29.85,4,1,0,0.00
2013-7-22,83,72,63,70,63,56,88,75,62,30.01,29.93,9,2,0,0.00
2013-7-23,84,70,62,68,60,54,89,70,58,30.05,29.97,9,1,0,0.00
2013-7-24,82,70,60,67,59,49,86,70,55,30.01,29.93,7,1,0,0.00
2013-7-25,84,69,58,68,59,51,84,69,56,30.03,29.95,8,2,0,0.00
2013-7-26,82,69,60,69,60,52,85,73,59,30.11,30.02,6,1,0,0.00
2013-7-27,83,71,59,67,60,49,85,68,56,30.04,29.91,8,2,0,0.00
2013-7-28,81,68,57,66,59,48,89,73,56,29.95,29.89,9,2,0,0.00
2013-7-29,81,67,58,65,57,51,85,72,53,30.05,29.93,7,2,0,0.00
2013-7-30,78,67,56,65,55,44,83,67,45,30.14,30.05,8,1,0,0.00
2013-7-31,77,66,55,62,54,46,81,66,46,30.12,30.02,6,2,0,0.00
2013-8-1,79,66,55,63,54,47,94,68,45,30.05,29.92,6,2,0,0.00
2013-8-2,80,67,55,64,56,47,85,69,51,29.98,29.93,8,1,0,0.00
2013-8-3,81,66,56,66,57,49,95,73,48,30.02,29.96,7,1,0,0.00
2013-8-4,80,65,53,64,56,48,97,74,47,30.03,29.96,6,1,0,0.00
2013-8-5,84,67,51,61,53,47,87,64,36,30.02,29.95,7,1,0,0.00
2013-8-6,78,64,52,62,54,48,100,73,43,30.06,29.98,9,2,0,0.00
2013-8-7,79,64,52,63,54,46,98,71,43,30.09,30.01,7,2,0,0.00
2013-8-8,82,66,54,63,55,48,91,70,43,30.02,29.94,7,1,0,0.00
2013-8-9,79,66,53,63,55,48,93,70,45,29.98,29.93,11,1,0,0.00
2013-8-10,78,65,54,63,54,47,90,70,44,30.03,29.98,9,2,0,0.00
2013-8-11,81,67,55,64,57,50,92,72,45,30.01,29.93,7,2,0,0.00
2013-8-12,82,68,56,66,58,48,91,72,49,29.99,29.93,7,1,0,0.00
2013-8-13,85,67,56,67,55,-100,90,70,42,30.00,29.91,7,1,0,0.00
2013-8-14,90,72,57,66,56,-100,90,66,37,29.95,29.87,7,1,2,0.00
2013-8-15,90,66,58,68,44,-100,95,64,42,29.96,29.91,9,1,9,0.00
2013-8-16,87,71,61,62,57,49,85,64,37,29.99,29.94,6,1,6,0.00
2013-8-17,89,74,60,61,53,-100,76,50,38,29.98,29.86,7,1,0,0.00
2013-8-18,87,72,59,64,56,48,78,58,41,29.93,29.85,7,2,0,0.00
2013-8-19,85,66,59,69,51,-100,88,72,53,29.96,29.89,9,2,0,0.00
2013-8-20,88,67,57,67,56,-100,95,73,45,29.97,29.89,8,2,0,0.00
2013-8-21,86,70,58,64,56,48,84,63,40,29.95,29.88,7,2,0,0.00
2013-8-22,92,72,58,58,53,48,79,55,31,29.95,29.86,6,1,0,0.00
2013-8-23,89,72,58,60,54,44,70,55,38,29.91,29.79,6,1,0,0.00
2013-8-24,88,71,56,59,50,-100,70,50,35,29.89,29.80,8,1,0,0.00
2013-8-25,90,72,56,61,49,42,64,46,34,29.95,29.88,6,1,0,0.00
2013-8-26,93,75,61,64,49,36,51,39,33,29.96,29.87,7,2,0,0.00
2013-8-27,91,77,71,66,57,47,61,52,40,29.90,29.84,7,1,0,0.00
2013-8-28,92,85,72,66,57,48,46,38,31,29.94,29.86,6,2,0,0.00
2013-8-29,98,80,67,63,55,48,66,44,30,29.98,29.92,5,1,0,0.00
2013-8-30,98,84,74,72,63,53,59,48,42,30.01,29.95,8,2,0,0.00
2013-8-31,91,81,75,72,63,-100,66,56,49,30.01,29.93,8,2,7,0.00
2013-9-1,89,81,72,71,64,57,66,58,51,29.98,29.90,6,2,0,0.00
2013-9-2,90,79,67,72,66,57,85,65,54,29.96,29.86,7,2,0,0.00
2013-9-3,94,80,68,67,61,54,74,54,38,29.94,29.87,8,1,0,0.00
2013-9-4,94,78,67,65,59,51,69,52,37,29.95,29.89,6,1,0,0.00
2013-9-5,96,80,67,63,56,50,64,46,30,29.93,29.87,7,1,7,0.00
2013-9-6,97,77,68,59,53,49,61,45,29,29.92,29.84,4,0,0,0.00
2013-9-7,97,77,68,60,50,-100,51,40,27,29.92,29.85,6,1,0,0.00
2013-9-8,89,75,66,61,54,47,71,49,36,29.88,29.79,6,1,0,0.00
2013-9-9,83,70,60,64,57,51,81,64,51,29.84,29.78,4,1,0,0.00
2013-9-10,81,68,55,62,55,48,84,65,46,29.96,29.84,5,1,0,0.00
2013-9-11,80,66,56,63,56,51,90,73,55,30.03,29.96,7,2,0,0.00
2013-9-12,87,72,55,61,55,49,87,59,36,29.97,29.87,9,1,0,0.00
2013-9-13,89,74,59,60,53,47,70,51,36,29.87,29.71,7,1,0,0.00
2013-9-14,91,75,62,62,54,-100,68,50,35,29.75,29.70,6,1,0,0.00
2013-9-15,92,78,65,62,57,51,71,50,36,29.81,29.72,6,1,0,0.00
2013-9-16,93,74,59,60,53,43,70,50,31,29.86,29.79,7,1,0,0.00
2013-9-17,82,68,56,60,52,44,74,59,44,29.85,29.77,6,1,0,0.00
2013-9-18,62,60,59,53,52,51,79,74,71,29.80,29.79,0,0,0,0.00
2013-9-23,73,69,66,46,45,41,45,42,37,29.92,29.91,0,0,0,0.00
2013-9-24,86,69,58,49,44,38,53,42,26,29.96,29.88,6,1,7,0.00
2013-9-25,76,65,55,61,52,43,76,62,50,29.88,29.72,9,2,9,0.00
2013-9-26,74,63,53,54,47,39,81,59,36,29.93,29.75,11,2,11,0.00
2013-9-27,72,60,50,39,37,33,63,44,28,30.03,29.92,14,2,17,0.00
2013-9-28,81,64,57,38,32,-100,43,31,19,30.08,30.02,5,2,6,0.00
2013-9-29,85,62,53,45,37,31,49,40,25,30.09,30.01,4,0,4,0.00
2013-9-30,84,66,53,53,43,37,59,44,27,30.01,29.89,4,0,4,0.00
2013-10-1,76,68,63,59,54,49,71,62,53,29.94,29.91,1,0,0,0.00
2013-10-2,76,64,56,63,56,51,94,74,50,30.00,29.91,7,1,0,0.00
2013-10-3,74,63,55,62,56,50,95,77,50,29.96,29.84,5,1,0,0.00
2013-10-4,71,62,53,53,40,27,92,53,19,30.01,29.90,21,6,31,0.00
2013-10-5,71,71,71,30,30,30,22,22,22,30.16,30.16,11,11,17,0.00
2013-10-6,74,69,61,38,29,24,41,24,17,30.13,30.01,12,4,15,0.00
2013-10-7,80,59,54,47,36,28,53,42,27,30.01,29.93,8,0,0,0.00
2013-10-8,76,61,49,55,46,32,86,58,40,29.96,29.84,7,1,0,0.00
2013-10-9,60,56,49,54,50,40,92,79,66,29.85,29.72,14,3,0,0.00
2013-10-10,67,55,43,48,43,36,83,64,44,30.04,29.83,6,1,0,0.00
2013-10-11,74,59,44,54,46,40,88,67,41,30.07,29.99,8,1,0,0.00
2013-10-12,76,59,46,55,46,-100,85,67,39,30.00,29.91,10,1,7,0.00
2013-10-13,70,62,52,56,52,46,91,71,47,30.05,29.97,6,1,0,0.00
2013-10-14,79,59,46,53,43,38,88,61,25,30.05,29.95,16,3,16,0.00
2013-10-15,77,68,60,40,37,34,42,31,25,30.02,29.95,11,3,0,0.00
2013-10-16,74,66,56,37,34,31,42,30,24,30.09,30.02,23,2,23,0.00
2013-10-17,73,57,52,46,37,29,61,47,35,30.07,29.96,2,0,2,0.00
2013-10-18,88,65,52,56,42,36,59,46,17,30.03,29.98,9,1,9,0.00
2013-10-19,82,61,52,50,39,-100,58,46,19,30.06,30.00,3,0,4,0.00
2013-10-20,80,62,49,59,45,29,82,54,33,30.02,29.93,6,1,6,0.00
2013-10-21,77,60,45,59,48,37,87,66,43,30.01,29.94,4,1,5,0.00
2013-10-22,78,60,48,59,50,40,90,72,40,30.02,29.93,4,1,6,0.00
2013-10-23,71,56,47,59,51,45,98,85,49,30.01,29.92,5,1,6,0.00
2013-10-24,73,61,56,58,55,51,92,81,51,30.07,29.98,7,1,7,0.00
2013-10-25,77,61,50,59,52,46,93,75,44,30.16,30.04,5,1,5,0.00
2013-10-26,83,60,48,62,48,-100,95,68,34,30.12,30.01,3,0,6,0.00
2013-10-27,74,60,50,56,48,38,93,67,38,30.01,29.84,7,2,0,0.00
2013-10-28,63,56,52,54,48,-100,95,79,51,29.95,29.82,15,3,0,0.00
2013-10-29,64,54,45,49,45,40,89,72,43,30.03,29.95,7,1,0,0.00
2013-10-30,73,58,45,50,43,35,87,60,31,30.09,30.01,8,2,0,0.00
2013-10-31,79,59,45,47,42,34,87,56,23,30.12,30.03,6,1,0,0.00
2013-11-1,80,66,59,45,36,30,59,33,24,30.14,29.99,9,3,0,0.00
2013-11-2,79,63,55,45,37,-100,58,42,24,30.02,29.90,6,2,0,0.00
2013-11-3,71,59,49,57,49,39,90,72,45,29.95,29.85,5,1,0,0.00
2013-11-4,70,58,50,54,50,40,93,77,48,29.97,29.83,5,1,0,0.00
2013-11-5,63,52,48,41,32,16,71,51,16,30.19,29.98,7,2,0,0.00
2013-11-6,70,64,62,23,22,18,21,19,17,30.24,30.18,15,10,15,0.00
2013-11-7,74,61,55,36,32,28,37,34,24,30.06,30.05,2,1,2,0.00
2013-11-8,82,62,51,48,35,26,59,39,19,30.04,29.96,5,1,7,0.00
2013-11-9,78,57,46,53,38,-100,83,54,23,30.10,30.01,5,1,6,0.00
2013-11-10,73,55,48,53,43,35,80,64,39,30.15,30.07,4,1,3,0.00
2013-11-11,83,58,46,46,41,31,75,56,22,30.17,30.07,7,1,0,0.00
2013-11-12,83,65,52,50,43,35,74,49,19,30.20,30.11,7,1,0,0.00
2013-11-13,79,76,73,37,32,29,24,20,17,30.08,29.98,11,6,0,0.00
2013-11-14,90,70,59,45,39,32,45,34,18,29.99,29.80,7,2,0,0.00
2013-11-15,67,59,50,55,46,34,83,62,44,29.80,29.70,6,2,0,0.00
2013-11-17,68,59,49,53,49,43,86,70,46,30.11,30.01,7,1,0,0.00
2013-11-18,65,56,45,52,47,38,89,71,50,30.18,30.08,5,2,6,0.00
2013-11-19,66,56,49,54,49,42,90,76,58,30.10,29.97,4,1,9,0.00
2013-11-20,65,58,51,54,51,42,98,78,59,30.00,29.90,6,1,0,0.00
2013-11-21,65,56,53,58,53,44,100,91,74,29.91,29.84,8,2,14,0.01
2013-11-22,55,52,49,44,38,34,74,60,51,30.00,29.89,17,9,21,0.01